Terminal Aerodrome Forecast
Issued by NWS

Home | Current Version | Previous Version | Text Only | Print | Product List | Glossary On
Versions: 1 2 3 4 5 6 7 8 9 10 11 12 13 14 15 16 17 18 19 20
000
FTUS46 KMTR 260300 AAA
TAFMRY
TAF AMD
KMRY 260305Z 2603/2624 23006KT P6SM SKC
     FM260600 22004KT P6SM SCT005
     FM260800 VRB03KT P6SM OVC004
     FM261000 VRB03KT 4SM BR OVC002
     FM261700 28005KT P6SM BKN005
     FM261900 26007KT P6SM FEW007=

USA.gov is the U.S. government's official web portal to all federal, state and local government web resources and services.